sensor_id;sensor_type;location;lat;lon;timestamp;P1;durP1;ratioP1;P2;durP2;ratioP2
51836;SDS011;38941;53.254;6.600;2023-07-29T00:00:22;6.40;;;3.70;;
51836;SDS011;38941;53.254;6.600;2023-07-29T00:02:23;6.03;;;3.22;;
51836;SDS011;38941;53.254;6.600;2023-07-29T00:04:23;6.50;;;3.30;;
51836;SDS011;38941;53.254;6.600;2023-07-29T00:06:24;5.18;;;3.30;;
51836;SDS011;38941;53.254;6.600;2023-07-29T00:08:25;10.18;;;3.60;;
51836;SDS011;38941;53.254;6.600;2023-07-29T00:10:26;4.93;;;3.03;;
51836;SDS011;38941;53.254;6.600;2023-07-29T00:12:27;5.88;;;3.20;;
51836;SDS011;38941;53.254;6.600;2023-07-29T00:14:28;6.28;;;3.38;;
51836;SDS011;38941;53.254;6.600;2023-07-29T00:16:29;6.70;;;3.70;;
51836;SDS011;38941;53.254;6.600;2023-07-29T00:18:30;6.28;;;3.60;;
51836;SDS011;38941;53.254;6.600;2023-07-29T00:20:31;6.45;;;3.60;;
51836;SDS011;38941;53.254;6.600;2023-07-29T00:22:31;5.50;;;3.58;;
51836;SDS011;38941;53.254;6.600;2023-07-29T00:24:32;5.22;;;3.38;;
51836;SDS011;38941;53.254;6.600;2023-07-29T00:26:33;6.80;;;3.83;;
51836;SDS011;38941;53.254;6.600;2023-07-29T00:28:34;6.65;;;4.38;;
51836;SDS011;38941;53.254;6.600;2023-07-29T00:30:35;8.77;;;4.40;;
51836;SDS011;38941;53.254;6.600;2023-07-29T00:32:35;5.38;;;3.67;;
51836;SDS011;38941;53.254;6.600;2023-07-29T00:34:38;7.00;;;3.75;;
51836;SDS011;38941;53.254;6.600;2023-07-29T00:36:38;5.63;;;3.50;;
51836;SDS011;38941;53.254;6.600;2023-07-29T00:38:40;7.18;;;3.67;;
51836;SDS011;38941;53.254;6.600;2023-07-29T00:40:41;6.97;;;3.78;;
51836;SDS011;38941;53.254;6.600;2023-07-29T00:42:41;7.18;;;4.32;;
51836;SDS011;38941;53.254;6.600;2023-07-29T00:44:42;6.05;;;3.60;;
51836;SDS011;38941;53.254;6.600;2023-07-29T00:46:43;8.25;;;3.95;;
51836;SDS011;38941;53.254;6.600;2023-07-29T00:48:46;7.57;;;4.03;;
51836;SDS011;38941;53.254;6.600;2023-07-29T00:50:48;7.72;;;4.15;;
51836;SDS011;38941;53.254;6.600;2023-07-29T00:52:49;6.05;;;4.20;;
51836;SDS011;38941;53.254;6.600;2023-07-29T00:54:50;8.07;;;5.50;;
51836;SDS011;38941;53.254;6.600;2023-07-29T00:56:51;7.20;;;3.88;;
51836;SDS011;38941;53.254;6.600;2023-07-29T00:58:52;5.78;;;3.88;;
51836;SDS011;38941;53.254;6.600;2023-07-29T01:00:58;7.88;;;4.32;;
51836;SDS011;38941;53.254;6.600;2023-07-29T01:02:59;6.00;;;3.70;;
51836;SDS011;38941;53.254;6.600;2023-07-29T01:05:00;7.28;;;4.10;;
51836;SDS011;38941;53.254;6.600;2023-07-29T01:09:24;9.48;;;4.63;;
51836;SDS011;38941;53.254;6.600;2023-07-29T01:11:32;7.07;;;3.80;;
51836;SDS011;38941;53.254;6.600;2023-07-29T01:13:43;8.40;;;4.15;;
51836;SDS011;38941;53.254;6.600;2023-07-29T01:15:55;7.15;;;4.30;;
51836;SDS011;38941;53.254;6.600;2023-07-29T01:18:05;7.07;;;4.07;;
51836;SDS011;38941;53.254;6.600;2023-07-29T01:20:11;8.77;;;4.63;;
51836;SDS011;38941;53.254;6.600;2023-07-29T01:22:16;8.60;;;3.97;;
51836;SDS011;38941;53.254;6.600;2023-07-29T01:24:17;8.20;;;4.35;;
51836;SDS011;38941;53.254;6.600;2023-07-29T01:26:18;6.22;;;3.90;;
51836;SDS011;38941;53.254;6.600;2023-07-29T01:28:18;6.70;;;4.30;;
51836;SDS011;38941;53.254;6.600;2023-07-29T01:30:20;9.55;;;4.25;;
51836;SDS011;38941;53.254;6.600;2023-07-29T01:34:45;10.45;;;4.50;;
51836;SDS011;38941;53.254;6.600;2023-07-29T01:36:51;8.18;;;4.53;;
51836;SDS011;38941;53.254;6.600;2023-07-29T01:38:54;6.25;;;4.13;;
51836;SDS011;38941;53.254;6.600;2023-07-29T01:40:56;7.72;;;4.97;;
51836;SDS011;38941;53.254;6.600;2023-07-29T01:42:58;6.78;;;4.82;;
51836;SDS011;38941;53.254;6.600;2023-07-29T01:44:59;8.80;;;4.28;;
51836;SDS011;38941;53.254;6.600;2023-07-29T01:47:00;6.75;;;4.15;;
51836;SDS011;38941;53.254;6.600;2023-07-29T01:49:01;7.22;;;4.43;;
51836;SDS011;38941;53.254;6.600;2023-07-29T01:51:01;8.70;;;3.97;;
51836;SDS011;38941;53.254;6.600;2023-07-29T01:53:03;8.30;;;4.72;;
51836;SDS011;38941;53.254;6.600;2023-07-29T01:55:03;6.80;;;4.03;;
51836;SDS011;38941;53.254;6.600;2023-07-29T01:57:04;10.10;;;4.65;;
51836;SDS011;38941;53.254;6.600;2023-07-29T01:59:05;12.80;;;5.50;;
51836;SDS011;38941;53.254;6.600;2023-07-29T02:01:06;7.05;;;4.85;;
51836;SDS011;38941;53.254;6.600;2023-07-29T02:03:06;7.07;;;4.65;;
51836;SDS011;38941;53.254;6.600;2023-07-29T02:05:07;10.02;;;4.82;;
51836;SDS011;38941;53.254;6.600;2023-07-29T02:07:08;9.45;;;4.82;;
51836;SDS011;38941;53.254;6.600;2023-07-29T02:09:09;7.47;;;4.50;;
51836;SDS011;38941;53.254;6.600;2023-07-29T02:11:09;8.10;;;4.63;;
51836;SDS011;38941;53.254;6.600;2023-07-29T02:13:10;10.10;;;4.85;;
51836;SDS011;38941;53.254;6.600;2023-07-29T02:15:12;8.70;;;4.93;;
51836;SDS011;38941;53.254;6.600;2023-07-29T02:17:13;8.00;;;4.82;;
51836;SDS011;38941;53.254;6.600;2023-07-29T02:19:13;8.77;;;5.75;;
51836;SDS011;38941;53.254;6.600;2023-07-29T02:21:14;7.85;;;4.95;;
51836;SDS011;38941;53.254;6.600;2023-07-29T02:23:15;8.02;;;4.55;;
51836;SDS011;38941;53.254;6.600;2023-07-29T02:25:19;10.20;;;5.32;;
51836;SDS011;38941;53.254;6.600;2023-07-29T02:27:19;9.77;;;4.85;;
51836;SDS011;38941;53.254;6.600;2023-07-29T02:29:20;8.25;;;4.50;;
51836;SDS011;38941;53.254;6.600;2023-07-29T02:31:22;9.25;;;5.30;;
51836;SDS011;38941;53.254;6.600;2023-07-29T02:33:24;9.18;;;5.15;;
51836;SDS011;38941;53.254;6.600;2023-07-29T02:35:24;11.20;;;5.32;;
51836;SDS011;38941;53.254;6.600;2023-07-29T02:37:25;8.15;;;4.53;;
51836;SDS011;38941;53.254;6.600;2023-07-29T02:39:26;9.93;;;4.82;;
51836;SDS011;38941;53.254;6.600;2023-07-29T02:41:26;11.18;;;5.22;;
51836;SDS011;38941;53.254;6.600;2023-07-29T02:43:27;9.38;;;5.22;;
51836;SDS011;38941;53.254;6.600;2023-07-29T02:45:28;9.27;;;5.32;;
51836;SDS011;38941;53.254;6.600;2023-07-29T02:47:29;7.25;;;4.65;;
51836;SDS011;38941;53.254;6.600;2023-07-29T02:49:30;11.98;;;5.05;;
51836;SDS011;38941;53.254;6.600;2023-07-29T02:51:30;10.15;;;5.25;;
51836;SDS011;38941;53.254;6.600;2023-07-29T02:53:31;8.73;;;5.40;;
51836;SDS011;38941;53.254;6.600;2023-07-29T02:55:32;10.93;;;5.50;;
51836;SDS011;38941;53.254;6.600;2023-07-29T02:57:33;6.32;;;4.22;;
51836;SDS011;38941;53.254;6.600;2023-07-29T02:59:34;11.45;;;4.95;;
51836;SDS011;38941;53.254;6.600;2023-07-29T03:01:34;8.98;;;5.28;;
51836;SDS011;38941;53.254;6.600;2023-07-29T03:03:35;9.30;;;5.68;;
51836;SDS011;38941;53.254;6.600;2023-07-29T03:05:36;7.07;;;4.40;;
51836;SDS011;38941;53.254;6.600;2023-07-29T03:07:38;9.13;;;4.85;;
51836;SDS011;38941;53.254;6.600;2023-07-29T03:09:38;7.07;;;5.05;;
51836;SDS011;38941;53.254;6.600;2023-07-29T03:11:41;11.77;;;4.70;;
51836;SDS011;38941;53.254;6.600;2023-07-29T03:13:43;9.25;;;5.50;;
51836;SDS011;38941;53.254;6.600;2023-07-29T03:15:44;9.50;;;5.28;;
51836;SDS011;38941;53.254;6.600;2023-07-29T03:17:44;10.75;;;5.15;;
51836;SDS011;38941;53.254;6.600;2023-07-29T03:19:45;10.30;;;5.30;;
51836;SDS011;38941;53.254;6.600;2023-07-29T03:21:45;7.95;;;4.82;;
51836;SDS011;38941;53.254;6.600;2023-07-29T03:23:46;9.40;;;4.95;;
51836;SDS011;38941;53.254;6.600;2023-07-29T03:25:50;7.63;;;4.82;;
51836;SDS011;38941;53.254;6.600;2023-07-29T03:27:56;7.65;;;4.90;;
51836;SDS011;38941;53.254;6.600;2023-07-29T03:29:57;7.65;;;4.60;;
51836;SDS011;38941;53.254;6.600;2023-07-29T03:31:57;8.52;;;5.10;;
51836;SDS011;38941;53.254;6.600;2023-07-29T03:33:58;8.75;;;4.28;;
51836;SDS011;38941;53.254;6.600;2023-07-29T03:35:59;8.68;;;4.47;;
51836;SDS011;38941;53.254;6.600;2023-07-29T03:38:00;7.75;;;4.45;;
51836;SDS011;38941;53.254;6.600;2023-07-29T03:40:00;8.32;;;4.40;;
51836;SDS011;38941;53.254;6.600;2023-07-29T03:42:01;10.68;;;5.10;;
51836;SDS011;38941;53.254;6.600;2023-07-29T03:44:03;7.57;;;4.40;;
51836;SDS011;38941;53.254;6.600;2023-07-29T03:46:03;8.90;;;4.53;;
51836;SDS011;38941;53.254;6.600;2023-07-29T03:48:05;8.70;;;4.80;;
51836;SDS011;38941;53.254;6.600;2023-07-29T03:50:07;7.53;;;4.25;;
51836;SDS011;38941;53.254;6.600;2023-07-29T03:52:11;10.25;;;4.45;;
51836;SDS011;38941;53.254;6.600;2023-07-29T03:54:12;11.32;;;4.45;;
51836;SDS011;38941;53.254;6.600;2023-07-29T03:56:13;7.28;;;3.97;;
51836;SDS011;38941;53.254;6.600;2023-07-29T03:58:13;8.32;;;4.47;;
51836;SDS011;38941;53.254;6.600;2023-07-29T04:00:16;9.57;;;4.07;;
51836;SDS011;38941;53.254;6.600;2023-07-29T04:02:17;10.50;;;4.25;;
51836;SDS011;38941;53.254;6.600;2023-07-29T04:04:18;8.68;;;4.30;;
51836;SDS011;38941;53.254;6.600;2023-07-29T04:06:19;12.00;;;5.45;;
51836;SDS011;38941;53.254;6.600;2023-07-29T04:08:19;12.63;;;4.72;;
51836;SDS011;38941;53.254;6.600;2023-07-29T04:10:23;6.65;;;3.78;;
51836;SDS011;38941;53.254;6.600;2023-07-29T04:12:24;8.23;;;4.22;;
51836;SDS011;38941;53.254;6.600;2023-07-29T04:14:24;9.23;;;4.18;;
51836;SDS011;38941;53.254;6.600;2023-07-29T04:16:25;10.38;;;4.80;;
51836;SDS011;38941;53.254;6.600;2023-07-29T04:18:26;9.80;;;4.25;;
51836;SDS011;38941;53.254;6.600;2023-07-29T04:20:27;7.95;;;3.70;;
51836;SDS011;38941;53.254;6.600;2023-07-29T04:22:27;6.55;;;3.63;;
51836;SDS011;38941;53.254;6.600;2023-07-29T04:24:31;8.60;;;4.38;;
51836;SDS011;38941;53.254;6.600;2023-07-29T04:26:32;8.60;;;3.97;;
51836;SDS011;38941;53.254;6.600;2023-07-29T04:28:33;7.82;;;4.47;;
51836;SDS011;38941;53.254;6.600;2023-07-29T04:30:33;8.95;;;3.53;;
51836;SDS011;38941;53.254;6.600;2023-07-29T04:32:34;5.97;;;3.58;;
51836;SDS011;38941;53.254;6.600;2023-07-29T04:34:35;8.75;;;3.85;;
51836;SDS011;38941;53.254;6.600;2023-07-29T04:36:36;7.68;;;3.60;;
51836;SDS011;38941;53.254;6.600;2023-07-29T04:38:37;8.40;;;3.72;;
51836;SDS011;38941;53.254;6.600;2023-07-29T04:40:38;4.95;;;3.00;;
51836;SDS011;38941;53.254;6.600;2023-07-29T04:42:39;6.95;;;3.47;;
51836;SDS011;38941;53.254;6.600;2023-07-29T04:44:40;6.30;;;3.58;;
51836;SDS011;38941;53.254;6.600;2023-07-29T04:46:42;7.10;;;3.53;;
51836;SDS011;38941;53.254;6.600;2023-07-29T04:48:43;6.95;;;3.33;;
51836;SDS011;38941;53.254;6.600;2023-07-29T04:50:43;7.60;;;3.42;;
51836;SDS011;38941;53.254;6.600;2023-07-29T04:52:44;8.70;;;3.40;;
51836;SDS011;38941;53.254;6.600;2023-07-29T04:54:45;6.35;;;3.20;;
51836;SDS011;38941;53.254;6.600;2023-07-29T04:56:46;6.53;;;2.88;;
51836;SDS011;38941;53.254;6.600;2023-07-29T04:58:46;6.22;;;3.13;;
51836;SDS011;38941;53.254;6.600;2023-07-29T05:00:47;5.43;;;2.47;;
51836;SDS011;38941;53.254;6.600;2023-07-29T05:02:48;5.38;;;2.70;;
51836;SDS011;38941;53.254;6.600;2023-07-29T05:04:49;9.38;;;2.78;;
51836;SDS011;38941;53.254;6.600;2023-07-29T05:06:49;7.07;;;2.78;;
51836;SDS011;38941;53.254;6.600;2023-07-29T05:08:50;9.73;;;2.90;;
51836;SDS011;38941;53.254;6.600;2023-07-29T05:10:51;5.53;;;2.53;;
51836;SDS011;38941;53.254;6.600;2023-07-29T05:12:53;10.98;;;3.65;;
51836;SDS011;38941;53.254;6.600;2023-07-29T05:14:54;5.28;;;2.70;;
51836;SDS011;38941;53.254;6.600;2023-07-29T05:16:55;6.50;;;2.17;;
51836;SDS011;38941;53.254;6.600;2023-07-29T05:18:56;5.30;;;2.67;;
51836;SDS011;38941;53.254;6.600;2023-07-29T05:20:57;7.70;;;2.22;;
51836;SDS011;38941;53.254;6.600;2023-07-29T05:22:58;4.93;;;2.30;;
51836;SDS011;38941;53.254;6.600;2023-07-29T05:24:59;6.90;;;2.40;;
51836;SDS011;38941;53.254;6.600;2023-07-29T05:27:00;5.80;;;2.80;;
51836;SDS011;38941;53.254;6.600;2023-07-29T05:29:00;10.13;;;2.95;;
51836;SDS011;38941;53.254;6.600;2023-07-29T05:31:01;7.82;;;3.05;;
51836;SDS011;38941;53.254;6.600;2023-07-29T05:33:02;7.85;;;2.97;;
51836;SDS011;38941;53.254;6.600;2023-07-29T05:35:04;3.10;;;1.77;;
51836;SDS011;38941;53.254;6.600;2023-07-29T05:37:05;4.57;;;1.70;;
51836;SDS011;38941;53.254;6.600;2023-07-29T05:39:06;5.38;;;2.03;;
51836;SDS011;38941;53.254;6.600;2023-07-29T05:41:07;4.28;;;1.60;;
51836;SDS011;38941;53.254;6.600;2023-07-29T05:43:08;4.00;;;1.92;;
51836;SDS011;38941;53.254;6.600;2023-07-29T05:45:08;4.80;;;2.08;;
51836;SDS011;38941;53.254;6.600;2023-07-29T05:47:09;3.88;;;1.83;;
51836;SDS011;38941;53.254;6.600;2023-07-29T05:49:10;3.40;;;1.77;;
51836;SDS011;38941;53.254;6.600;2023-07-29T05:51:11;4.75;;;1.88;;
51836;SDS011;38941;53.254;6.600;2023-07-29T05:53:11;6.20;;;2.50;;
51836;SDS011;38941;53.254;6.600;2023-07-29T05:55:12;5.15;;;2.40;;
51836;SDS011;38941;53.254;6.600;2023-07-29T05:57:13;5.45;;;2.25;;
51836;SDS011;38941;53.254;6.600;2023-07-29T05:59:14;6.03;;;1.75;;
51836;SDS011;38941;53.254;6.600;2023-07-29T06:01:14;5.30;;;1.88;;
51836;SDS011;38941;53.254;6.600;2023-07-29T06:03:15;6.72;;;2.03;;
51836;SDS011;38941;53.254;6.600;2023-07-29T06:05:16;5.57;;;2.03;;
51836;SDS011;38941;53.254;6.600;2023-07-29T06:07:16;9.40;;;2.30;;
51836;SDS011;38941;53.254;6.600;2023-07-29T06:09:17;4.10;;;1.90;;
51836;SDS011;38941;53.254;6.600;2023-07-29T06:11:18;3.80;;;1.88;;
51836;SDS011;38941;53.254;6.600;2023-07-29T06:13:19;6.57;;;2.13;;
51836;SDS011;38941;53.254;6.600;2023-07-29T06:15:19;5.80;;;2.22;;
51836;SDS011;38941;53.254;6.600;2023-07-29T06:17:22;4.20;;;2.15;;
51836;SDS011;38941;53.254;6.600;2023-07-29T06:19:23;7.22;;;2.38;;
51836;SDS011;38941;53.254;6.600;2023-07-29T06:21:24;3.40;;;1.98;;
51836;SDS011;38941;53.254;6.600;2023-07-29T06:23:24;6.03;;;2.00;;
51836;SDS011;38941;53.254;6.600;2023-07-29T06:25:25;9.93;;;3.03;;
51836;SDS011;38941;53.254;6.600;2023-07-29T06:27:26;5.28;;;1.88;;
51836;SDS011;38941;53.254;6.600;2023-07-29T06:29:27;3.42;;;2.33;;
51836;SDS011;38941;53.254;6.600;2023-07-29T06:31:27;7.90;;;2.75;;
51836;SDS011;38941;53.254;6.600;2023-07-29T06:33:29;5.95;;;2.08;;
51836;SDS011;38941;53.254;6.600;2023-07-29T06:35:30;7.60;;;2.13;;
51836;SDS011;38941;53.254;6.600;2023-07-29T06:37:30;4.28;;;1.85;;
51836;SDS011;38941;53.254;6.600;2023-07-29T06:39:33;4.82;;;2.08;;
51836;SDS011;38941;53.254;6.600;2023-07-29T06:41:34;11.18;;;2.30;;
51836;SDS011;38941;53.254;6.600;2023-07-29T06:43:34;18.67;;;2.40;;
51836;SDS011;38941;53.254;6.600;2023-07-29T06:45:35;11.07;;;2.28;;
51836;SDS011;38941;53.254;6.600;2023-07-29T06:47:36;3.90;;;2.20;;
51836;SDS011;38941;53.254;6.600;2023-07-29T06:49:36;5.78;;;2.47;;
51836;SDS011;38941;53.254;6.600;2023-07-29T06:51:37;9.13;;;2.80;;
51836;SDS011;38941;53.254;6.600;2023-07-29T06:53:38;4.65;;;1.83;;
51836;SDS011;38941;53.254;6.600;2023-07-29T06:55:38;10.10;;;1.85;;
51836;SDS011;38941;53.254;6.600;2023-07-29T06:57:39;4.22;;;1.95;;
51836;SDS011;38941;53.254;6.600;2023-07-29T06:59:40;8.15;;;2.15;;
51836;SDS011;38941;53.254;6.600;2023-07-29T07:01:41;6.38;;;2.30;;
51836;SDS011;38941;53.254;6.600;2023-07-29T07:03:42;3.92;;;1.63;;
51836;SDS011;38941;53.254;6.600;2023-07-29T07:05:43;6.15;;;2.50;;
51836;SDS011;38941;53.254;6.600;2023-07-29T07:07:43;5.78;;;2.00;;
51836;SDS011;38941;53.254;6.600;2023-07-29T07:09:44;6.72;;;2.55;;
51836;SDS011;38941;53.254;6.600;2023-07-29T07:11:45;6.53;;;2.28;;
51836;SDS011;38941;53.254;6.600;2023-07-29T07:13:45;7.75;;;2.20;;
51836;SDS011;38941;53.254;6.600;2023-07-29T07:15:46;5.72;;;2.17;;
51836;SDS011;38941;53.254;6.600;2023-07-29T07:17:47;7.22;;;2.75;;
51836;SDS011;38941;53.254;6.600;2023-07-29T07:19:47;5.25;;;2.38;;
51836;SDS011;38941;53.254;6.600;2023-07-29T07:21:48;10.27;;;2.55;;
51836;SDS011;38941;53.254;6.600;2023-07-29T07:23:49;6.03;;;2.53;;
51836;SDS011;38941;53.254;6.600;2023-07-29T07:25:50;8.13;;;2.63;;
51836;SDS011;38941;53.254;6.600;2023-07-29T07:27:51;10.50;;;2.10;;
51836;SDS011;38941;53.254;6.600;2023-07-29T07:29:52;8.35;;;2.13;;
51836;SDS011;38941;53.254;6.600;2023-07-29T07:31:53;4.63;;;2.20;;
51836;SDS011;38941;53.254;6.600;2023-07-29T07:33:54;10.20;;;2.53;;
51836;SDS011;38941;53.254;6.600;2023-07-29T07:35:55;5.00;;;2.42;;
51836;SDS011;38941;53.254;6.600;2023-07-29T07:37:55;5.47;;;2.45;;
51836;SDS011;38941;53.254;6.600;2023-07-29T07:39:56;5.15;;;2.30;;
51836;SDS011;38941;53.254;6.600;2023-07-29T07:41:57;12.85;;;2.90;;
51836;SDS011;38941;53.254;6.600;2023-07-29T07:43:58;6.88;;;2.40;;
51836;SDS011;38941;53.254;6.600;2023-07-29T07:45:59;6.80;;;2.00;;
51836;SDS011;38941;53.254;6.600;2023-07-29T07:48:01;5.35;;;2.83;;
51836;SDS011;38941;53.254;6.600;2023-07-29T07:50:02;6.10;;;2.85;;
51836;SDS011;38941;53.254;6.600;2023-07-29T07:52:03;7.13;;;2.33;;
51836;SDS011;38941;53.254;6.600;2023-07-29T07:54:04;5.93;;;2.22;;
51836;SDS011;38941;53.254;6.600;2023-07-29T07:56:05;5.30;;;2.28;;
51836;SDS011;38941;53.254;6.600;2023-07-29T07:58:06;12.18;;;3.17;;
51836;SDS011;38941;53.254;6.600;2023-07-29T08:00:07;9.70;;;2.47;;
51836;SDS011;38941;53.254;6.600;2023-07-29T08:02:09;8.73;;;3.10;;
51836;SDS011;38941;53.254;6.600;2023-07-29T08:04:11;6.35;;;2.05;;
51836;SDS011;38941;53.254;6.600;2023-07-29T08:06:11;9.55;;;2.58;;
51836;SDS011;38941;53.254;6.600;2023-07-29T08:08:12;10.63;;;2.95;;
51836;SDS011;38941;53.254;6.600;2023-07-29T08:10:13;8.18;;;2.50;;
51836;SDS011;38941;53.254;6.600;2023-07-29T08:12:14;5.72;;;2.30;;
51836;SDS011;38941;53.254;6.600;2023-07-29T08:14:15;6.20;;;1.80;;
51836;SDS011;38941;53.254;6.600;2023-07-29T08:16:16;8.55;;;3.20;;
51836;SDS011;38941;53.254;6.600;2023-07-29T08:18:17;8.32;;;2.60;;
51836;SDS011;38941;53.254;6.600;2023-07-29T08:20:18;6.45;;;2.08;;
51836;SDS011;38941;53.254;6.600;2023-07-29T08:22:19;5.10;;;2.15;;
51836;SDS011;38941;53.254;6.600;2023-07-29T08:24:20;6.35;;;2.15;;
51836;SDS011;38941;53.254;6.600;2023-07-29T08:26:21;4.95;;;2.60;;
51836;SDS011;38941;53.254;6.600;2023-07-29T08:28:22;7.30;;;2.17;;
51836;SDS011;38941;53.254;6.600;2023-07-29T08:30:23;8.02;;;2.03;;
51836;SDS011;38941;53.254;6.600;2023-07-29T08:32:23;5.03;;;2.08;;
51836;SDS011;38941;53.254;6.600;2023-07-29T08:34:24;7.82;;;2.25;;
51836;SDS011;38941;53.254;6.600;2023-07-29T08:36:25;6.18;;;2.38;;
51836;SDS011;38941;53.254;6.600;2023-07-29T08:38:26;17.63;;;2.38;;
51836;SDS011;38941;53.254;6.600;2023-07-29T08:40:27;8.38;;;2.03;;
51836;SDS011;38941;53.254;6.600;2023-07-29T08:42:31;2.65;;;1.50;;
51836;SDS011;38941;53.254;6.600;2023-07-29T08:44:40;5.53;;;2.15;;
51836;SDS011;38941;53.254;6.600;2023-07-29T08:46:41;7.13;;;2.00;;
51836;SDS011;38941;53.254;6.600;2023-07-29T08:48:42;4.93;;;1.92;;
51836;SDS011;38941;53.254;6.600;2023-07-29T08:50:43;3.38;;;1.48;;
51836;SDS011;38941;53.254;6.600;2023-07-29T08:52:45;4.35;;;1.70;;
51836;SDS011;38941;53.254;6.600;2023-07-29T08:54:47;7.75;;;1.70;;
51836;SDS011;38941;53.254;6.600;2023-07-29T08:56:48;6.88;;;1.52;;
51836;SDS011;38941;53.254;6.600;2023-07-29T08:58:49;4.78;;;1.52;;
51836;SDS011;38941;53.254;6.600;2023-07-29T09:00:50;4.10;;;1.33;;
51836;SDS011;38941;53.254;6.600;2023-07-29T09:02:51;2.92;;;1.42;;
51836;SDS011;38941;53.254;6.600;2023-07-29T09:04:53;5.72;;;1.40;;
51836;SDS011;38941;53.254;6.600;2023-07-29T09:06:53;2.33;;;1.27;;
51836;SDS011;38941;53.254;6.600;2023-07-29T09:08:56;5.95;;;1.35;;
51836;SDS011;38941;53.254;6.600;2023-07-29T09:10:58;2.72;;;1.10;;
51836;SDS011;38941;53.254;6.600;2023-07-29T09:12:59;4.93;;;1.30;;
51836;SDS011;38941;53.254;6.600;2023-07-29T09:15:01;3.42;;;1.45;;
51836;SDS011;38941;53.254;6.600;2023-07-29T09:17:02;3.67;;;1.40;;
51836;SDS011;38941;53.254;6.600;2023-07-29T09:19:08;4.30;;;1.35;;
51836;SDS011;38941;53.254;6.600;2023-07-29T09:21:09;6.00;;;1.77;;
51836;SDS011;38941;53.254;6.600;2023-07-29T09:23:10;9.73;;;2.08;;
51836;SDS011;38941;53.254;6.600;2023-07-29T09:25:11;4.25;;;1.30;;
51836;SDS011;38941;53.254;6.600;2023-07-29T09:27:25;3.50;;;1.00;;
51836;SDS011;38941;53.254;6.600;2023-07-29T09:29:27;5.40;;;1.55;;
51836;SDS011;38941;53.254;6.600;2023-07-29T09:31:29;2.65;;;1.05;;
51836;SDS011;38941;53.254;6.600;2023-07-29T09:33:33;3.65;;;1.00;;
51836;SDS011;38941;53.254;6.600;2023-07-29T09:35:37;5.93;;;1.20;;
51836;SDS011;38941;53.254;6.600;2023-07-29T09:37:38;2.45;;;0.98;;
51836;SDS011;38941;53.254;6.600;2023-07-29T09:39:41;5.22;;;1.63;;
51836;SDS011;38941;53.254;6.600;2023-07-29T09:41:47;3.30;;;1.17;;
51836;SDS011;38941;53.254;6.600;2023-07-29T09:43:53;1.85;;;1.00;;
51836;SDS011;38941;53.254;6.600;2023-07-29T09:45:59;2.70;;;0.77;;
51836;SDS011;38941;53.254;6.600;2023-07-29T09:48:04;3.90;;;1.30;;
51836;SDS011;38941;53.254;6.600;2023-07-29T09:50:09;3.30;;;1.02;;
51836;SDS011;38941;53.254;6.600;2023-07-29T09:52:11;3.53;;;1.48;;
51836;SDS011;38941;53.254;6.600;2023-07-29T09:54:12;5.93;;;1.60;;
51836;SDS011;38941;53.254;6.600;2023-07-29T09:56:15;5.25;;;1.35;;
51836;SDS011;38941;53.254;6.600;2023-07-29T09:58:19;2.92;;;0.93;;
51836;SDS011;38941;53.254;6.600;2023-07-29T10:00:27;7.10;;;0.98;;
51836;SDS011;38941;53.254;6.600;2023-07-29T10:02:29;2.35;;;0.80;;
51836;SDS011;38941;53.254;6.600;2023-07-29T10:04:30;4.50;;;1.38;;
51836;SDS011;38941;53.254;6.600;2023-07-29T10:06:32;3.55;;;0.80;;
51836;SDS011;38941;53.254;6.600;2023-07-29T10:08:34;2.97;;;0.60;;
51836;SDS011;38941;53.254;6.600;2023-07-29T10:10:35;1.13;;;0.50;;
51836;SDS011;38941;53.254;6.600;2023-07-29T10:12:37;1.80;;;0.80;;
51836;SDS011;38941;53.254;6.600;2023-07-29T10:14:39;2.25;;;0.90;;
51836;SDS011;38941;53.254;6.600;2023-07-29T10:16:41;2.83;;;1.00;;
51836;SDS011;38941;53.254;6.600;2023-07-29T10:18:45;2.10;;;1.00;;
51836;SDS011;38941;53.254;6.600;2023-07-29T10:20:46;3.30;;;0.88;;
51836;SDS011;38941;53.254;6.600;2023-07-29T10:22:50;3.88;;;0.70;;
51836;SDS011;38941;53.254;6.600;2023-07-29T10:24:56;1.52;;;0.73;;
51836;SDS011;38941;53.254;6.600;2023-07-29T10:27:03;1.57;;;0.80;;
51836;SDS011;38941;53.254;6.600;2023-07-29T10:29:05;3.05;;;0.82;;
51836;SDS011;38941;53.254;6.600;2023-07-29T10:31:10;4.28;;;1.17;;
51836;SDS011;38941;53.254;6.600;2023-07-29T10:33:11;3.45;;;1.10;;
51836;SDS011;38941;53.254;6.600;2023-07-29T10:35:15;6.38;;;1.52;;
51836;SDS011;38941;53.254;6.600;2023-07-29T10:37:16;2.38;;;1.00;;
51836;SDS011;38941;53.254;6.600;2023-07-29T10:39:17;4.80;;;1.00;;
51836;SDS011;38941;53.254;6.600;2023-07-29T10:41:18;4.20;;;0.85;;
51836;SDS011;38941;53.254;6.600;2023-07-29T10:43:20;1.67;;;0.90;;
51836;SDS011;38941;53.254;6.600;2023-07-29T10:45:38;2.97;;;0.82;;
51836;SDS011;38941;53.254;6.600;2023-07-29T10:47:39;1.17;;;0.65;;
51836;SDS011;38941;53.254;6.600;2023-07-29T10:49:41;3.75;;;1.00;;
51836;SDS011;38941;53.254;6.600;2023-07-29T10:51:43;6.10;;;0.77;;
51836;SDS011;38941;53.254;6.600;2023-07-29T10:53:43;2.65;;;0.88;;
51836;SDS011;38941;53.254;6.600;2023-07-29T10:55:44;3.60;;;0.93;;
51836;SDS011;38941;53.254;6.600;2023-07-29T10:57:45;3.20;;;0.90;;
51836;SDS011;38941;53.254;6.600;2023-07-29T10:59:53;3.88;;;1.02;;
51836;SDS011;38941;53.254;6.600;2023-07-29T11:01:59;2.30;;;1.10;;
51836;SDS011;38941;53.254;6.600;2023-07-29T11:04:22;4.05;;;0.98;;
51836;SDS011;38941;53.254;6.600;2023-07-29T11:06:24;2.53;;;1.17;;
51836;SDS011;38941;53.254;6.600;2023-07-29T11:08:28;3.08;;;1.10;;
51836;SDS011;38941;53.254;6.600;2023-07-29T11:10:30;3.00;;;0.70;;
51836;SDS011;38941;53.254;6.600;2023-07-29T11:14:47;4.05;;;0.98;;
51836;SDS011;38941;53.254;6.600;2023-07-29T11:16:48;4.75;;;1.10;;
51836;SDS011;38941;53.254;6.600;2023-07-29T11:18:50;1.92;;;0.82;;
51836;SDS011;38941;53.254;6.600;2023-07-29T11:20:51;3.45;;;1.00;;
51836;SDS011;38941;53.254;6.600;2023-07-29T11:22:55;5.05;;;1.20;;
51836;SDS011;38941;53.254;6.600;2023-07-29T11:24:57;6.47;;;1.33;;
51836;SDS011;38941;53.254;6.600;2023-07-29T11:26:58;4.63;;;1.48;;
51836;SDS011;38941;53.254;6.600;2023-07-29T11:28:58;2.28;;;0.93;;
51836;SDS011;38941;53.254;6.600;2023-07-29T11:31:00;4.65;;;0.98;;
51836;SDS011;38941;53.254;6.600;2023-07-29T11:33:01;3.10;;;0.88;;
51836;SDS011;38941;53.254;6.600;2023-07-29T11:35:06;7.47;;;1.13;;
51836;SDS011;38941;53.254;6.600;2023-07-29T11:37:11;3.45;;;0.93;;
51836;SDS011;38941;53.254;6.600;2023-07-29T11:39:12;0.95;;;0.70;;
51836;SDS011;38941;53.254;6.600;2023-07-29T11:41:12;4.38;;;1.02;;
51836;SDS011;38941;53.254;6.600;2023-07-29T11:43:19;1.52;;;1.20;;
51836;SDS011;38941;53.254;6.600;2023-07-29T11:45:20;2.72;;;0.95;;
51836;SDS011;38941;53.254;6.600;2023-07-29T11:47:22;5.05;;;1.35;;
51836;SDS011;38941;53.254;6.600;2023-07-29T11:49:22;3.97;;;1.10;;
51836;SDS011;38941;53.254;6.600;2023-07-29T11:51:23;3.67;;;0.77;;
51836;SDS011;38941;53.254;6.600;2023-07-29T11:53:26;3.42;;;1.15;;
51836;SDS011;38941;53.254;6.600;2023-07-29T11:55:29;3.35;;;1.10;;
51836;SDS011;38941;53.254;6.600;2023-07-29T11:57:30;3.90;;;1.80;;
51836;SDS011;38941;53.254;6.600;2023-07-29T11:59:34;4.43;;;0.93;;
51836;SDS011;38941;53.254;6.600;2023-07-29T12:01:35;3.53;;;1.02;;
51836;SDS011;38941;53.254;6.600;2023-07-29T12:03:36;5.72;;;1.77;;
51836;SDS011;38941;53.254;6.600;2023-07-29T12:05:37;3.38;;;0.85;;
51836;SDS011;38941;53.254;6.600;2023-07-29T12:07:38;4.80;;;1.45;;
51836;SDS011;38941;53.254;6.600;2023-07-29T12:09:40;3.40;;;1.10;;
51836;SDS011;38941;53.254;6.600;2023-07-29T12:11:41;5.18;;;1.85;;
51836;SDS011;38941;53.254;6.600;2023-07-29T12:13:42;3.67;;;1.23;;
51836;SDS011;38941;53.254;6.600;2023-07-29T12:15:43;5.15;;;1.38;;
51836;SDS011;38941;53.254;6.600;2023-07-29T12:17:44;3.38;;;1.00;;